AIRPORT ID: VAAMI

DATE: 2024-05-27 ZULU TIME: 21.3 LOCAL TIME: 7


METAR KVAAMI 272130Z AUTO 08012G19KT 70/70 A2954

ALTIMETER: A2954 Q1000

DENSITY ALT: 6800 Ft

WIND DIRECT: 80

WIND SPEED: 12 Gust

WIND CONDITIONS:

VISIBILTY: Not Available

TEMPERATURE: 158 F 70 C

DEW POINT: 158 F 70 C

HUMID: 100%

LCL: Under 500 feet

RADIO CHECK: 0

ADVISARIES: 0

GREETINGS: 0

CONVERSATIONS: 0